createdAt,value
2019-06-07T00:02:08.222Z,2.65
2019-06-07T00:04:38.087Z,2.37
2019-06-07T00:07:08.997Z,2.43
2019-06-07T00:09:38.568Z,2.33
2019-06-07T00:12:09.535Z,3.73
2019-06-07T00:14:39.865Z,2.37
2019-06-07T00:17:12.517Z,2.00
2019-06-07T00:19:40.972Z,2.87
2019-06-07T00:22:19.595Z,2.95
2019-06-07T00:24:41.664Z,3.10
2019-06-07T00:27:12.583Z,1.85
2019-06-07T00:29:42.536Z,3.63
2019-06-07T00:32:14.407Z,2.60
2019-06-07T00:34:43.184Z,2.77
2019-06-07T00:37:14.127Z,2.65
2019-06-07T00:39:43.744Z,3.63
2019-06-07T00:42:17.474Z,3.50
2019-06-07T00:44:45.283Z,4.83
2019-06-07T00:47:16.533Z,2.98
2019-06-07T00:49:46.795Z,2.80
2019-06-07T00:53:07.107Z,2.30
2019-06-07T00:54:47.446Z,2.63
2019-06-07T00:57:19.117Z,3.08
2019-06-07T00:59:48.364Z,2.17
2019-06-07T01:02:19.253Z,2.60
2019-06-07T01:04:48.809Z,2.60
2019-06-07T01:07:20.400Z,4.60
2019-06-07T01:09:51.416Z,3.22
2019-06-07T01:12:23.892Z,3.30
2019-06-07T01:14:52.808Z,2.30
2019-06-07T01:17:41.424Z,2.30
2019-06-07T01:19:58.915Z,3.30
2019-06-07T01:22:29.459Z,2.87
2019-06-07T01:24:59.232Z,3.02
2019-06-07T01:27:29.603Z,5.00
2019-06-07T01:29:59.221Z,3.07
2019-06-07T01:32:31.844Z,3.27
2019-06-07T01:34:59.775Z,3.03
2019-06-07T01:37:30.281Z,2.70
2019-06-07T01:40:00.067Z,2.13
2019-06-07T01:42:30.925Z,1.95
2019-06-07T01:45:00.519Z,2.70
2019-06-07T01:47:32.080Z,2.77
2019-06-07T01:50:01.700Z,4.10
2019-06-07T01:52:31.333Z,2.70
2019-06-07T01:55:01.667Z,2.70
2019-06-07T01:57:45.832Z,2.60
2019-06-07T02:00:02.409Z,3.20
2019-06-07T02:02:32.097Z,2.33
2019-06-07T02:05:01.434Z,2.00
2019-06-07T02:07:33.038Z,3.23
2019-06-07T02:10:02.939Z,3.80
2019-06-07T02:12:42.280Z,2.98
2019-06-07T02:15:04.671Z,2.60
2019-06-07T02:17:36.357Z,1.92
2019-06-07T02:20:06.433Z,2.12
2019-06-07T02:22:36.001Z,3.27
2019-06-07T02:27:39.947Z,2.77
2019-06-07T02:30:36.878Z,3.52
2019-06-07T02:32:41.712Z,1.90
2019-06-07T02:35:11.581Z,2.67
2019-06-07T02:37:41.203Z,2.10
2019-06-07T02:40:11.862Z,3.55
2019-06-07T02:42:42.698Z,2.45
2019-06-07T02:45:13.462Z,2.73
2019-06-07T02:47:44.373Z,3.12
2019-06-07T02:50:14.011Z,2.13
2019-06-07T02:52:44.111Z,3.30
2019-06-07T02:55:14.015Z,3.27
2019-06-07T02:57:43.659Z,2.03
2019-06-07T03:00:45.812Z,2.60
2019-06-07T03:02:45.277Z,3.17
2019-06-07T03:05:14.817Z,2.50
2019-06-07T03:07:48.458Z,2.37
2019-06-07T03:10:18.717Z,3.53
2019-06-07T03:12:51.007Z,3.40
2019-06-07T03:15:32.996Z,2.67
2019-06-07T03:17:59.149Z,2.83
2019-06-07T03:20:34.402Z,2.77
2019-06-07T03:23:05.045Z,2.67
2019-06-07T03:25:40.087Z,2.42
2019-06-07T03:28:09.893Z,3.63
2019-06-07T03:31:00.271Z,3.03
2019-06-07T03:33:11.769Z,3.10
2019-06-07T03:35:41.893Z,1.90
2019-06-07T03:38:11.256Z,2.13
2019-06-07T03:40:40.474Z,4.03
2019-06-07T03:43:10.163Z,2.60
2019-06-07T03:45:41.763Z,4.83
2019-06-07T03:48:11.853Z,1.93
2019-06-07T03:50:42.234Z,2.57
2019-06-07T03:53:11.971Z,1.90
2019-06-07T03:55:41.650Z,1.90
2019-06-07T03:58:31.371Z,1.52
2019-06-07T04:00:43.480Z,2.22
2019-06-07T04:03:32.835Z,1.77
2019-06-07T04:05:44.799Z,2.13
2019-06-07T04:08:15.376Z,3.40
2019-06-07T04:10:59.050Z,3.20
2019-06-07T04:13:15.607Z,2.53
2019-06-07T04:15:44.830Z,2.50
2019-06-07T04:18:15.093Z,2.47
2019-06-07T04:20:44.757Z,2.20
2019-06-07T04:23:27.713Z,2.27
2019-06-07T04:25:46.650Z,1.97
2019-06-07T04:28:16.302Z,3.20
2019-06-07T04:30:46.031Z,2.17
2019-06-07T04:33:16.776Z,2.15
2019-06-07T04:35:46.063Z,2.20
2019-06-07T04:38:16.726Z,2.05
2019-06-07T04:40:47.076Z,3.42
2019-06-07T04:43:16.505Z,2.57
2019-06-07T04:45:51.052Z,2.83
2019-06-07T04:48:22.019Z,4.15
2019-06-07T04:50:52.876Z,2.95
2019-06-07T04:53:22.799Z,3.12
2019-06-07T04:55:52.304Z,2.83
2019-06-07T04:58:22.694Z,5.58
2019-06-07T05:00:59.162Z,3.10
2019-06-07T05:03:24.125Z,3.30
2019-06-07T05:05:53.415Z,3.02
2019-06-07T05:08:28.433Z,2.77
2019-06-07T05:10:54.068Z,2.40
2019-06-07T05:13:23.438Z,3.73
2019-06-07T05:15:53.403Z,3.30
2019-06-07T05:18:22.937Z,3.05
2019-06-07T05:20:52.807Z,4.20
2019-06-07T05:23:59.930Z,3.67
2019-06-07T05:25:53.782Z,3.72
2019-06-07T05:28:23.237Z,3.12
2019-06-07T05:31:05.135Z,3.22
2019-06-07T05:33:23.705Z,3.13
2019-06-07T05:35:53.032Z,3.40
2019-06-07T05:38:22.287Z,2.90
2019-06-07T05:40:52.130Z,3.98
2019-06-07T05:43:35.005Z,3.40
2019-06-07T05:46:02.117Z,3.72
2019-06-07T05:48:31.798Z,4.10
2019-06-07T05:51:01.491Z,5.40
2019-06-07T05:53:31.685Z,3.73
2019-06-07T05:56:02.440Z,3.55
2019-06-07T05:58:32.796Z,3.70
2019-06-07T06:01:41.698Z,5.03
2019-06-07T06:03:35.017Z,4.15
2019-06-07T06:06:05.419Z,5.12
2019-06-07T06:08:36.588Z,5.00
2019-06-07T06:11:06.330Z,4.77
2019-06-07T06:13:38.273Z,4.45
2019-06-07T06:16:07.308Z,4.53
2019-06-07T06:18:38.036Z,5.75
2019-06-07T06:21:18.126Z,4.70
2019-06-07T06:23:39.613Z,5.25
2019-06-07T06:26:10.030Z,6.20
2019-06-07T06:28:43.260Z,6.08
2019-06-07T06:31:14.511Z,5.20
2019-06-07T06:33:45.248Z,5.30
2019-06-07T06:36:15.000Z,7.13
2019-06-07T06:38:46.365Z,3.97
2019-06-07T06:41:16.905Z,3.93
2019-06-07T06:43:50.295Z,4.20
2019-06-07T06:46:37.333Z,5.20
2019-06-07T06:48:54.760Z,4.10
2019-06-07T06:51:20.166Z,4.20
2019-06-07T06:53:52.443Z,4.03
2019-06-07T06:56:21.268Z,4.50
2019-06-07T06:59:27.251Z,4.13
2019-06-07T07:01:22.046Z,4.27
2019-06-07T07:04:11.053Z,3.77
2019-06-07T07:06:26.295Z,5.33
2019-06-07T07:08:54.846Z,3.97
2019-06-07T07:11:24.156Z,3.60
2019-06-07T07:13:56.725Z,3.77
2019-06-07T07:16:24.675Z,3.60
2019-06-07T07:18:54.713Z,3.20
2019-06-07T07:21:24.504Z,4.27
2019-06-07T07:24:19.708Z,4.40
2019-06-07T07:26:26.056Z,2.80
2019-06-07T07:28:57.805Z,5.13
2019-06-07T07:31:26.479Z,3.50
2019-06-07T07:36:38.689Z,3.35
2019-06-07T07:39:04.485Z,4.83
2019-06-07T07:41:29.460Z,3.40
2019-06-07T07:44:06.023Z,6.40
2019-06-07T07:46:30.676Z,5.53
2019-06-07T07:49:00.305Z,3.40
2019-06-07T07:51:29.679Z,5.40
2019-06-07T07:54:10.313Z,3.12
2019-06-07T07:56:30.899Z,4.70
2019-06-07T07:59:02.318Z,3.83
2019-06-07T08:01:32.449Z,2.27
2019-06-07T08:04:01.681Z,4.15
2019-06-07T08:06:31.333Z,4.00
2019-06-07T08:09:01.364Z,2.67
2019-06-07T08:11:30.627Z,2.37
2019-06-07T08:14:00.362Z,2.17
2019-06-07T08:16:29.577Z,2.82
2019-06-07T08:19:04.081Z,2.58
2019-06-07T08:21:30.070Z,2.70
2019-06-07T08:24:03.683Z,4.25
2019-06-07T08:26:30.505Z,2.00
2019-06-07T08:29:02.668Z,2.77
2019-06-07T08:31:31.210Z,4.15
2019-06-07T08:34:00.918Z,3.13
2019-06-07T08:36:41.372Z,3.00
2019-06-07T08:39:07.210Z,2.60
2019-06-07T08:41:33.198Z,2.67
2019-06-07T08:44:22.417Z,3.60
2019-06-07T08:46:33.519Z,2.97
2019-06-07T08:49:05.723Z,2.80
2019-06-07T08:51:35.827Z,3.60
2019-06-07T08:54:21.742Z,2.20
2019-06-07T08:56:36.591Z,2.77
2019-06-07T08:59:11.511Z,2.37
2019-06-07T09:01:38.114Z,2.43
2019-06-07T09:04:10.890Z,3.57
2019-06-07T09:07:07.247Z,2.93
2019-06-07T09:09:10.285Z,4.43
2019-06-07T09:11:39.626Z,2.70
2019-06-07T09:14:09.512Z,3.47
2019-06-07T09:16:39.935Z,2.90
2019-06-07T09:19:11.043Z,3.10
2019-06-07T09:21:40.609Z,2.70
2019-06-07T09:24:11.685Z,2.60
2019-06-07T09:26:40.759Z,2.90
2019-06-07T09:29:12.046Z,2.35
2019-06-07T09:31:52.554Z,2.77
2019-06-07T09:34:15.105Z,3.47
2019-06-07T09:36:44.024Z,3.60
2019-06-07T09:39:13.616Z,3.72
2019-06-07T09:41:49.508Z,2.37
2019-06-07T09:44:25.130Z,2.17
2019-06-07T09:46:46.326Z,2.90
2019-06-07T09:49:28.279Z,2.08
2019-06-07T09:51:46.675Z,2.70
2019-06-07T09:55:02.279Z,3.27
2019-06-07T09:56:48.208Z,2.40
2019-06-07T09:59:18.217Z,2.37
2019-06-07T10:01:47.447Z,2.27
2019-06-07T10:04:30.618Z,2.37
2019-06-07T10:06:48.033Z,4.50
2019-06-07T10:11:48.924Z,2.43
2019-06-07T10:14:18.342Z,2.22
2019-06-07T10:16:48.353Z,2.70
2019-06-07T10:19:18.135Z,2.67
2019-06-07T10:21:47.397Z,2.30
2019-06-07T10:24:16.648Z,2.20
2019-06-07T10:26:46.172Z,2.30
2019-06-07T10:29:16.039Z,2.27
2019-06-07T10:31:45.595Z,3.07
2019-06-07T10:34:15.110Z,2.50
2019-06-07T10:36:44.405Z,2.37
2019-06-07T10:39:14.288Z,1.90
2019-06-07T10:41:43.705Z,2.30
2019-06-07T10:44:13.512Z,2.20
2019-06-07T10:46:42.767Z,2.50
2019-06-07T10:49:12.552Z,2.13
2019-06-07T10:51:42.142Z,2.87
2019-06-07T10:54:24.583Z,2.43
2019-06-07T10:56:42.914Z,2.20
2019-06-07T10:59:13.710Z,3.33
2019-06-07T11:01:43.176Z,3.00
2019-06-07T11:04:13.818Z,2.93
2019-06-07T11:06:43.465Z,3.03
2019-06-07T11:09:14.145Z,3.33
2019-06-07T11:11:43.735Z,4.23
2019-06-07T11:14:14.617Z,3.20
2019-06-07T11:16:43.597Z,3.60
2019-06-07T11:19:15.699Z,3.02
2019-06-07T11:21:43.119Z,2.07
2019-06-07T11:24:12.382Z,2.63
2019-06-07T11:26:41.575Z,2.87
2019-06-07T11:29:10.907Z,2.57
2019-06-07T11:31:47.734Z,1.70
2019-06-07T11:34:16.781Z,2.67
2019-06-07T11:36:46.007Z,3.17
2019-06-07T11:39:15.203Z,1.95
2019-06-07T11:41:44.382Z,2.50
2019-06-07T11:44:13.211Z,2.60
2019-06-07T11:46:42.235Z,2.27
2019-06-07T11:49:12.702Z,2.43
2019-06-07T11:51:41.734Z,3.00
2019-06-07T11:54:12.017Z,3.40
2019-06-07T11:56:40.880Z,2.00
2019-06-07T11:59:11.226Z,2.80
2019-06-07T12:01:40.681Z,3.40
2019-06-07T12:04:09.564Z,2.97
2019-06-07T12:06:38.923Z,2.30
2019-06-07T12:09:08.535Z,3.27
2019-06-07T12:11:37.486Z,2.80
2019-06-07T12:14:06.927Z,3.23
2019-06-07T12:16:36.437Z,3.50
2019-06-07T12:19:05.580Z,2.90
2019-06-07T12:21:34.831Z,2.50
2019-06-07T12:24:04.102Z,2.50
2019-06-07T12:26:33.003Z,2.77
2019-06-07T12:29:01.733Z,3.40
2019-06-07T12:31:30.833Z,2.87
2019-06-07T12:34:00.449Z,2.83
2019-06-07T12:36:30.171Z,2.50
2019-06-07T12:39:03.269Z,2.70
2019-06-07T12:41:32.080Z,2.10
2019-06-07T12:44:04.696Z,1.83
2019-06-07T12:46:35.006Z,2.83
2019-06-07T12:49:03.736Z,2.00
2019-06-07T12:51:32.842Z,2.13
2019-06-07T12:54:05.348Z,3.10
2019-06-07T12:56:33.971Z,2.33
2019-06-07T12:59:02.967Z,2.80
2019-06-07T13:01:31.969Z,2.60
2019-06-07T13:04:00.799Z,2.60
2019-06-07T13:06:30.719Z,2.37
2019-06-07T13:08:59.464Z,2.80
2019-06-07T13:11:31.563Z,2.58
2019-06-07T13:13:59.635Z,2.57
2019-06-07T13:16:28.596Z,2.27
2019-06-07T13:18:57.660Z,3.05
2019-06-07T13:21:26.649Z,2.42
2019-06-07T13:23:55.738Z,2.22
2019-06-07T13:26:25.059Z,1.90
2019-06-07T13:28:54.277Z,3.53
2019-06-07T13:31:23.389Z,2.10
2019-06-07T13:33:52.315Z,2.65
2019-06-07T13:36:22.366Z,2.63
2019-06-07T13:38:51.256Z,3.03
2019-06-07T13:41:32.616Z,2.55
2019-06-07T13:43:51.738Z,2.15
2019-06-07T13:46:21.034Z,2.00
2019-06-07T13:48:50.124Z,2.20
2019-06-07T13:51:21.115Z,2.30
2019-06-07T13:53:50.500Z,1.90
2019-06-07T13:56:19.834Z,2.93
2019-06-07T13:58:49.125Z,1.50
2019-06-07T14:01:20.316Z,2.90
2019-06-07T14:03:50.159Z,2.60
2019-06-07T14:06:19.003Z,2.00
2019-06-07T14:08:48.019Z,2.00
2019-06-07T14:11:16.860Z,2.00
2019-06-07T14:13:45.755Z,2.40
2019-06-07T14:16:15.301Z,1.80
2019-06-07T14:18:44.097Z,2.22
2019-06-07T14:21:12.963Z,2.07
2019-06-07T14:23:48.626Z,2.40
2019-06-07T14:26:13.080Z,2.00
2019-06-07T14:28:41.878Z,2.10
2019-06-07T14:31:10.668Z,2.10
2019-06-07T14:33:39.609Z,2.40
2019-06-07T14:36:09.857Z,2.00
2019-06-07T14:38:38.526Z,2.30
2019-06-07T14:41:07.439Z,2.23
2019-06-07T14:43:36.229Z,1.93
2019-06-07T14:46:05.264Z,3.33
2019-06-07T14:48:34.585Z,2.10
2019-06-07T14:51:03.550Z,1.87
2019-06-07T14:53:33.086Z,3.40
2019-06-07T14:56:03.003Z,1.62
2019-06-07T14:58:39.099Z,2.90
2019-06-07T15:01:03.882Z,2.40
2019-06-07T15:03:32.786Z,2.40
2019-06-07T15:06:02.434Z,2.25
2019-06-07T15:08:33.014Z,2.07
2019-06-07T15:11:02.632Z,1.50
2019-06-07T15:13:33.585Z,1.87
2019-06-07T15:16:02.796Z,1.63
2019-06-07T15:18:33.757Z,2.17
2019-06-07T15:21:03.558Z,2.20
2019-06-07T15:23:33.547Z,1.63
2019-06-07T15:26:23.190Z,1.50
2019-06-07T15:28:52.437Z,2.23
2019-06-07T15:31:21.155Z,2.10
2019-06-07T15:33:50.512Z,2.27
2019-06-07T15:36:19.580Z,2.13
2019-06-07T15:38:48.271Z,2.53
2019-06-07T15:41:17.617Z,2.10
2019-06-07T15:43:46.796Z,2.33
2019-06-07T15:46:17.523Z,2.30
2019-06-07T15:48:47.173Z,2.20
2019-06-07T15:51:15.944Z,2.83
2019-06-07T15:53:44.973Z,2.20
2019-06-07T15:56:13.805Z,1.97
2019-06-07T15:58:42.816Z,2.10
2019-06-07T16:01:12.091Z,2.12
2019-06-07T16:03:42.126Z,1.57
2019-06-07T16:06:10.982Z,1.43
2019-06-07T16:08:40.536Z,1.83
2019-06-07T16:11:09.335Z,1.60
2019-06-07T16:13:38.770Z,2.20
2019-06-07T16:16:07.673Z,1.87
2019-06-07T16:18:37.652Z,1.93
2019-06-07T16:21:06.859Z,1.60
2019-06-07T16:23:35.771Z,2.03
2019-06-07T16:26:04.555Z,1.90
2019-06-07T16:28:34.277Z,1.80
2019-06-07T16:31:03.822Z,2.35
2019-06-07T16:33:36.720Z,2.17
2019-06-07T16:36:06.061Z,2.20
2019-06-07T16:38:36.290Z,2.50
2019-06-07T16:41:05.751Z,2.50
2019-06-07T16:43:34.691Z,2.25
2019-06-07T16:46:04.531Z,2.03
2019-06-07T16:48:34.252Z,2.10
2019-06-07T16:51:07.306Z,2.10
2019-06-07T16:53:38.188Z,1.77
2019-06-07T16:56:07.942Z,2.23
2019-06-07T16:58:37.833Z,2.85
2019-06-07T17:01:07.430Z,2.22
2019-06-07T17:03:37.655Z,2.80
2019-06-07T17:06:07.629Z,2.37
2019-06-07T17:08:37.978Z,2.87
2019-06-07T17:11:09.527Z,2.33
2019-06-07T17:13:40.303Z,1.70
2019-06-07T17:16:09.934Z,2.45
2019-06-07T17:18:39.286Z,2.17
2019-06-07T17:21:08.501Z,1.20
2019-06-07T17:23:37.224Z,1.67
2019-06-07T17:26:06.971Z,1.57
2019-06-07T17:28:36.393Z,1.37
2019-06-07T17:31:05.614Z,1.67
2019-06-07T17:33:35.580Z,1.50
2019-06-07T17:36:05.743Z,2.10
2019-06-07T17:38:36.059Z,1.00
2019-06-07T17:41:05.448Z,0.88
2019-06-07T17:43:48.626Z,1.20
2019-06-07T17:46:06.396Z,1.20
2019-06-07T17:48:36.793Z,1.15
2019-06-07T17:51:06.605Z,1.37
2019-06-07T17:53:36.534Z,1.08
2019-06-07T17:56:09.362Z,1.77
2019-06-07T17:58:39.007Z,0.90
2019-06-07T18:01:10.147Z,0.60
2019-06-07T18:03:39.734Z,1.00
2019-06-07T18:06:09.228Z,1.17
2019-06-07T18:08:38.580Z,1.00
2019-06-07T18:11:08.944Z,0.80
2019-06-07T18:13:38.404Z,0.80
2019-06-07T18:16:07.839Z,0.60
2019-06-07T18:18:38.352Z,0.60
2019-06-07T18:21:08.071Z,0.65
2019-06-07T18:23:38.253Z,0.82
2019-06-07T18:26:07.853Z,0.68
2019-06-07T18:28:38.280Z,0.78
2019-06-07T18:31:08.900Z,1.20
2019-06-07T18:33:38.398Z,0.70
2019-06-07T18:36:07.969Z,0.97
2019-06-07T18:38:38.585Z,0.80
2019-06-07T18:41:08.041Z,0.80
2019-06-07T18:43:37.563Z,0.60
2019-06-07T18:46:07.252Z,0.90
2019-06-07T18:48:37.094Z,0.78
2019-06-07T18:51:07.537Z,0.82
2019-06-07T18:53:37.305Z,0.60
2019-06-07T18:56:07.654Z,1.35
2019-06-07T18:58:37.492Z,0.98
2019-06-07T19:01:07.427Z,0.93
2019-06-07T19:03:37.443Z,0.54
2019-06-07T19:06:07.450Z,0.82
2019-06-07T19:08:37.688Z,0.60
2019-06-07T19:11:07.419Z,0.80
2019-06-07T19:13:38.389Z,0.50
2019-06-07T19:16:08.581Z,0.80
2019-06-07T19:18:38.874Z,0.60
2019-06-07T19:21:08.637Z,0.63
2019-06-07T19:23:38.867Z,1.08
2019-06-07T19:26:08.108Z,0.70
2019-06-07T19:28:38.293Z,0.65
2019-06-07T19:31:08.119Z,1.30
2019-06-07T19:33:48.689Z,1.10
2019-06-07T19:36:09.943Z,1.30
2019-06-07T19:38:40.445Z,1.63
2019-06-07T19:41:19.213Z,0.70
2019-06-07T19:43:41.908Z,0.53
2019-06-07T19:46:11.636Z,0.60
2019-06-07T19:48:40.815Z,0.60
2019-06-07T19:51:10.580Z,0.90
2019-06-07T19:53:40.210Z,0.50
2019-06-07T19:56:13.432Z,1.07
2019-06-07T19:58:42.649Z,0.85
2019-06-07T20:01:12.231Z,0.77
2019-06-07T20:03:41.552Z,1.10
2019-06-07T20:06:11.836Z,0.70
2019-06-07T20:08:42.347Z,0.70
2019-06-07T20:11:11.920Z,0.70
2019-06-07T20:13:48.349Z,0.70
2019-06-07T20:16:18.114Z,0.60
2019-06-07T20:18:47.855Z,0.70
2019-06-07T20:21:17.840Z,0.70
2019-06-07T20:23:47.360Z,0.82
2019-06-07T20:26:21.192Z,0.50
2019-06-07T20:28:50.814Z,0.63
2019-06-07T20:31:20.455Z,0.60
2019-06-07T20:33:51.144Z,0.77
2019-06-07T20:36:21.160Z,0.70
2019-06-07T20:38:50.565Z,0.60
2019-06-07T20:41:20.303Z,0.73
2019-06-07T20:43:53.546Z,0.65
2019-06-07T20:46:23.910Z,0.70
2019-06-07T20:48:53.870Z,0.60
2019-06-07T20:51:23.910Z,0.60
2019-06-07T20:53:53.705Z,0.60
2019-06-07T20:56:25.373Z,1.07
2019-06-07T20:58:55.228Z,0.70
2019-06-07T21:01:25.815Z,0.73
2019-06-07T21:03:55.295Z,0.65
2019-06-07T21:06:24.792Z,0.80
2019-06-07T21:08:54.131Z,0.60
2019-06-07T21:11:23.375Z,0.80
2019-06-07T21:13:52.725Z,0.70
2019-06-07T21:16:22.530Z,0.90
2019-06-07T21:18:52.432Z,0.60
2019-06-07T21:21:21.962Z,0.70
2019-06-07T21:23:51.852Z,0.90
2019-06-07T21:26:21.203Z,0.70
2019-06-07T21:28:50.678Z,0.50
2019-06-07T21:31:20.002Z,0.53
2019-06-07T21:33:49.789Z,0.70
2019-06-07T21:36:18.955Z,0.65
2019-06-07T21:38:48.114Z,0.90
2019-06-07T21:41:17.304Z,0.60
2019-06-07T21:43:46.549Z,0.90
2019-06-07T21:46:20.449Z,0.80
2019-06-07T21:48:47.691Z,0.70
2019-06-07T21:51:17.113Z,1.57
2019-06-07T21:53:46.280Z,0.70
2019-06-07T21:56:16.159Z,1.00
2019-06-07T21:58:45.391Z,0.50
2019-06-07T22:01:22.592Z,0.78
2019-06-07T22:03:51.907Z,1.03
2019-06-07T22:06:21.247Z,0.60
2019-06-07T22:08:50.525Z,0.77
2019-06-07T22:11:19.831Z,0.70
2019-06-07T22:13:49.029Z,0.75
2019-06-07T22:16:28.530Z,0.83
2019-06-07T22:18:49.823Z,0.60
2019-06-07T22:21:19.342Z,1.12
2019-06-07T22:23:48.915Z,1.40
2019-06-07T22:26:18.540Z,1.00
2019-06-07T22:28:48.179Z,1.07
2019-06-07T22:31:17.436Z,0.60
2019-06-07T22:33:46.721Z,0.98
2019-06-07T22:36:17.039Z,0.97
2019-06-07T22:38:48.218Z,0.80
2019-06-07T22:41:18.002Z,0.60
2019-06-07T22:43:47.594Z,0.70
2019-06-07T22:46:17.461Z,0.50
2019-06-07T22:48:46.804Z,0.63
2019-06-07T22:51:16.488Z,0.83
2019-06-07T22:53:47.067Z,0.60
2019-06-07T22:56:32.046Z,0.80
2019-06-07T22:59:01.629Z,1.02
2019-06-07T23:01:30.980Z,0.80
2019-06-07T23:04:00.463Z,0.50
2019-06-07T23:06:30.300Z,1.07
2019-06-07T23:08:59.485Z,0.85
2019-06-07T23:11:29.295Z,0.85
2019-06-07T23:13:59.137Z,0.95
2019-06-07T23:16:29.063Z,1.80
2019-06-07T23:18:58.361Z,0.60
2019-06-07T23:21:28.291Z,0.60
2019-06-07T23:23:57.459Z,0.62
2019-06-07T23:26:27.135Z,0.60
2019-06-07T23:28:56.491Z,1.22
2019-06-07T23:31:26.231Z,1.13
2019-06-07T23:33:55.882Z,0.75
2019-06-07T23:36:26.264Z,0.80
2019-06-07T23:38:55.524Z,0.65
2019-06-07T23:41:24.938Z,1.35
2019-06-07T23:43:54.518Z,0.70
2019-06-07T23:46:24.143Z,0.70
2019-06-07T23:48:53.759Z,0.70
2019-06-07T23:51:23.267Z,0.90
2019-06-07T23:53:52.517Z,0.77
2019-06-07T23:56:22.603Z,0.84
2019-06-07T23:58:52.002Z,0.95
